sensor_id;sensor_type;location;lat;lon;timestamp;temperature;humidity
26408;DHT22;14583;43.604;1.364;2022-08-06T00:01:47;26.40;82.40
26408;DHT22;14583;43.604;1.364;2022-08-06T00:04:13;26.40;82.60
26408;DHT22;14583;43.604;1.364;2022-08-06T00:06:38;26.40;82.40
26408;DHT22;14583;43.604;1.364;2022-08-06T00:09:04;26.50;82.70
26408;DHT22;14583;43.604;1.364;2022-08-06T00:11:30;26.50;82.20
26408;DHT22;14583;43.604;1.364;2022-08-06T00:13:55;26.40;82.40
26408;DHT22;14583;43.604;1.364;2022-08-06T00:16:21;26.40;82.90
26408;DHT22;14583;43.604;1.364;2022-08-06T00:18:49;26.40;82.60
26408;DHT22;14583;43.604;1.364;2022-08-06T00:21:15;26.30;82.80
26408;DHT22;14583;43.604;1.364;2022-08-06T00:23:41;26.20;83.30
26408;DHT22;14583;43.604;1.364;2022-08-06T00:26:07;26.20;83.10
26408;DHT22;14583;43.604;1.364;2022-08-06T00:28:33;26.20;83.70
26408;DHT22;14583;43.604;1.364;2022-08-06T00:31:00;26.40;83.40
26408;DHT22;14583;43.604;1.364;2022-08-06T00:33:26;26.30;83.30
26408;DHT22;14583;43.604;1.364;2022-08-06T00:35:52;26.50;82.80
26408;DHT22;14583;43.604;1.364;2022-08-06T00:38:18;26.40;83.00
26408;DHT22;14583;43.604;1.364;2022-08-06T00:40:43;26.20;83.90
26408;DHT22;14583;43.604;1.364;2022-08-06T00:43:09;26.20;83.90
26408;DHT22;14583;43.604;1.364;2022-08-06T00:45:35;26.10;84.00
26408;DHT22;14583;43.604;1.364;2022-08-06T00:48:01;26.20;83.70
26408;DHT22;14583;43.604;1.364;2022-08-06T00:50:27;26.30;83.40
26408;DHT22;14583;43.604;1.364;2022-08-06T00:52:53;26.00;84.40
26408;DHT22;14583;43.604;1.364;2022-08-06T00:55:19;26.00;85.10
26408;DHT22;14583;43.604;1.364;2022-08-06T00:57:46;25.90;85.40
26408;DHT22;14583;43.604;1.364;2022-08-06T01:00:12;25.90;85.50
26408;DHT22;14583;43.604;1.364;2022-08-06T01:02:38;26.10;84.80
26408;DHT22;14583;43.604;1.364;2022-08-06T01:05:04;26.20;85.00
26408;DHT22;14583;43.604;1.364;2022-08-06T01:07:30;26.00;85.80
26408;DHT22;14583;43.604;1.364;2022-08-06T01:09:56;26.00;85.90
26408;DHT22;14583;43.604;1.364;2022-08-06T01:12:22;26.10;85.60
26408;DHT22;14583;43.604;1.364;2022-08-06T01:14:48;26.00;85.70
26408;DHT22;14583;43.604;1.364;2022-08-06T01:23:07;26.00;86.20
26408;DHT22;14583;43.604;1.364;2022-08-06T01:25:42;26.10;86.00
26408;DHT22;14583;43.604;1.364;2022-08-06T01:28:28;25.90;86.20
26408;DHT22;14583;43.604;1.364;2022-08-06T01:30:59;25.80;87.50
26408;DHT22;14583;43.604;1.364;2022-08-06T01:33:31;25.80;87.30
26408;DHT22;14583;43.604;1.364;2022-08-06T01:36:05;25.80;87.40
26408;DHT22;14583;43.604;1.364;2022-08-06T01:38:42;25.70;87.70
26408;DHT22;14583;43.604;1.364;2022-08-06T01:41:13;25.70;88.40
26408;DHT22;14583;43.604;1.364;2022-08-06T01:44:01;25.60;88.40
26408;DHT22;14583;43.604;1.364;2022-08-06T01:46:27;25.70;88.70
26408;DHT22;14583;43.604;1.364;2022-08-06T01:48:55;25.70;88.60
26408;DHT22;14583;43.604;1.364;2022-08-06T01:51:22;25.60;89.20
26408;DHT22;14583;43.604;1.364;2022-08-06T01:53:49;25.70;88.90
26408;DHT22;14583;43.604;1.364;2022-08-06T01:56:15;25.70;88.70
26408;DHT22;14583;43.604;1.364;2022-08-06T01:58:42;25.80;89.00
26408;DHT22;14583;43.604;1.364;2022-08-06T02:01:12;25.80;88.70
26408;DHT22;14583;43.604;1.364;2022-08-06T02:03:51;25.60;89.00
26408;DHT22;14583;43.604;1.364;2022-08-06T02:06:24;25.60;89.60
26408;DHT22;14583;43.604;1.364;2022-08-06T02:08:53;25.70;90.00
26408;DHT22;14583;43.604;1.364;2022-08-06T02:11:19;25.50;90.40
26408;DHT22;14583;43.604;1.364;2022-08-06T02:13:46;25.30;91.10
26408;DHT22;14583;43.604;1.364;2022-08-06T02:16:12;25.30;90.70
26408;DHT22;14583;43.604;1.364;2022-08-06T02:18:41;25.40;90.80
26408;DHT22;14583;43.604;1.364;2022-08-06T02:21:15;25.30;90.90
26408;DHT22;14583;43.604;1.364;2022-08-06T02:23:43;25.20;91.10
26408;DHT22;14583;43.604;1.364;2022-08-06T02:26:09;25.30;91.10
26408;DHT22;14583;43.604;1.364;2022-08-06T02:28:37;25.20;91.10
26408;DHT22;14583;43.604;1.364;2022-08-06T02:31:03;25.10;91.50
26408;DHT22;14583;43.604;1.364;2022-08-06T02:33:29;25.00;91.70
26408;DHT22;14583;43.604;1.364;2022-08-06T02:36:13;24.90;91.70
26408;DHT22;14583;43.604;1.364;2022-08-06T02:38:52;25.00;91.70
26408;DHT22;14583;43.604;1.364;2022-08-06T02:41:28;25.20;91.40
26408;DHT22;14583;43.604;1.364;2022-08-06T02:44:02;25.30;91.30
26408;DHT22;14583;43.604;1.364;2022-08-06T02:46:36;25.20;91.50
26408;DHT22;14583;43.604;1.364;2022-08-06T02:49:09;25.10;91.70
26408;DHT22;14583;43.604;1.364;2022-08-06T02:51:41;25.10;91.50
26408;DHT22;14583;43.604;1.364;2022-08-06T02:54:19;25.10;91.70
26408;DHT22;14583;43.604;1.364;2022-08-06T02:56:47;25.10;91.90
26408;DHT22;14583;43.604;1.364;2022-08-06T02:59:20;25.20;91.60
26408;DHT22;14583;43.604;1.364;2022-08-06T03:01:52;25.20;91.40
26408;DHT22;14583;43.604;1.364;2022-08-06T03:04:20;25.20;91.50
26408;DHT22;14583;43.604;1.364;2022-08-06T03:06:49;25.30;91.40
26408;DHT22;14583;43.604;1.364;2022-08-06T03:09:16;25.10;91.50
26408;DHT22;14583;43.604;1.364;2022-08-06T03:11:45;25.10;91.60
26408;DHT22;14583;43.604;1.364;2022-08-06T03:14:13;24.70;92.10
26408;DHT22;14583;43.604;1.364;2022-08-06T03:16:40;24.90;92.10
26408;DHT22;14583;43.604;1.364;2022-08-06T03:19:08;24.80;92.10
26408;DHT22;14583;43.604;1.364;2022-08-06T03:21:34;24.90;91.90
26408;DHT22;14583;43.604;1.364;2022-08-06T03:24:02;24.70;92.60
26408;DHT22;14583;43.604;1.364;2022-08-06T03:26:29;24.80;92.10
26408;DHT22;14583;43.604;1.364;2022-08-06T03:28:56;24.80;92.10
26408;DHT22;14583;43.604;1.364;2022-08-06T03:31:24;24.70;92.30
26408;DHT22;14583;43.604;1.364;2022-08-06T03:33:52;24.60;92.70
26408;DHT22;14583;43.604;1.364;2022-08-06T03:36:19;24.40;92.80
26408;DHT22;14583;43.604;1.364;2022-08-06T03:38:53;24.60;92.90
26408;DHT22;14583;43.604;1.364;2022-08-06T03:41:20;24.80;92.30
26408;DHT22;14583;43.604;1.364;2022-08-06T03:43:46;25.00;92.10
26408;DHT22;14583;43.604;1.364;2022-08-06T03:46:13;25.00;92.10
26408;DHT22;14583;43.604;1.364;2022-08-06T03:48:42;24.90;92.00
26408;DHT22;14583;43.604;1.364;2022-08-06T03:51:12;24.90;92.40
26408;DHT22;14583;43.604;1.364;2022-08-06T03:53:40;25.00;92.10
26408;DHT22;14583;43.604;1.364;2022-08-06T03:56:07;24.80;92.40
26408;DHT22;14583;43.604;1.364;2022-08-06T03:58:37;24.90;92.40
26408;DHT22;14583;43.604;1.364;2022-08-06T04:01:09;24.70;92.90
26408;DHT22;14583;43.604;1.364;2022-08-06T04:03:36;24.70;92.70
26408;DHT22;14583;43.604;1.364;2022-08-06T04:06:03;24.50;93.30
26408;DHT22;14583;43.604;1.364;2022-08-06T04:08:32;24.60;93.40
26408;DHT22;14583;43.604;1.364;2022-08-06T04:10:59;24.60;93.30
26408;DHT22;14583;43.604;1.364;2022-08-06T04:13:27;24.40;93.40
26408;DHT22;14583;43.604;1.364;2022-08-06T04:15:54;24.30;94.00
26408;DHT22;14583;43.604;1.364;2022-08-06T04:18:24;24.20;94.20
26408;DHT22;14583;43.604;1.364;2022-08-06T04:20:52;24.40;94.00
26408;DHT22;14583;43.604;1.364;2022-08-06T04:23:19;24.50;93.70
26408;DHT22;14583;43.604;1.364;2022-08-06T04:25:48;24.50;93.80
26408;DHT22;14583;43.604;1.364;2022-08-06T04:28:15;24.60;93.40
26408;DHT22;14583;43.604;1.364;2022-08-06T04:30:44;24.30;94.10
26408;DHT22;14583;43.604;1.364;2022-08-06T04:33:12;24.30;94.10
26408;DHT22;14583;43.604;1.364;2022-08-06T04:35:40;24.40;94.00
26408;DHT22;14583;43.604;1.364;2022-08-06T04:38:06;24.40;94.30
26408;DHT22;14583;43.604;1.364;2022-08-06T04:40:33;24.40;94.30
26408;DHT22;14583;43.604;1.364;2022-08-06T04:42:59;24.30;94.50
26408;DHT22;14583;43.604;1.364;2022-08-06T04:45:26;24.20;95.20
26408;DHT22;14583;43.604;1.364;2022-08-06T04:47:53;24.30;94.90
26408;DHT22;14583;43.604;1.364;2022-08-06T04:50:19;24.40;94.50
26408;DHT22;14583;43.604;1.364;2022-08-06T04:52:45;24.40;94.80
26408;DHT22;14583;43.604;1.364;2022-08-06T04:55:11;24.40;94.40
26408;DHT22;14583;43.604;1.364;2022-08-06T04:57:37;24.40;94.70
26408;DHT22;14583;43.604;1.364;2022-08-06T05:00:03;24.00;95.90
26408;DHT22;14583;43.604;1.364;2022-08-06T05:02:29;24.20;95.50
26408;DHT22;14583;43.604;1.364;2022-08-06T05:04:55;24.20;95.70
26408;DHT22;14583;43.604;1.364;2022-08-06T05:07:25;24.30;95.20
26408;DHT22;14583;43.604;1.364;2022-08-06T05:09:53;24.30;95.30
26408;DHT22;14583;43.604;1.364;2022-08-06T05:14:59;24.20;96.00
26408;DHT22;14583;43.604;1.364;2022-08-06T05:17:29;24.20;96.00
26408;DHT22;14583;43.604;1.364;2022-08-06T05:19:59;24.10;96.30
26408;DHT22;14583;43.604;1.364;2022-08-06T05:22:27;24.20;96.30
26408;DHT22;14583;43.604;1.364;2022-08-06T05:24:55;24.10;96.40
26408;DHT22;14583;43.604;1.364;2022-08-06T05:27:21;24.10;96.40
26408;DHT22;14583;43.604;1.364;2022-08-06T05:29:47;24.00;97.10
26408;DHT22;14583;43.604;1.364;2022-08-06T05:32:13;24.00;97.20
26408;DHT22;14583;43.604;1.364;2022-08-06T05:34:39;23.90;97.60
26408;DHT22;14583;43.604;1.364;2022-08-06T05:37:04;23.90;98.20
26408;DHT22;14583;43.604;1.364;2022-08-06T05:39:30;23.80;98.60
26408;DHT22;14583;43.604;1.364;2022-08-06T05:41:56;23.70;99.00
26408;DHT22;14583;43.604;1.364;2022-08-06T05:44:22;23.80;98.90
26408;DHT22;14583;43.604;1.364;2022-08-06T05:46:56;23.70;99.10
26408;DHT22;14583;43.604;1.364;2022-08-06T05:49:25;24.00;98.90
26408;DHT22;14583;43.604;1.364;2022-08-06T05:52:13;24.10;98.30
26408;DHT22;14583;43.604;1.364;2022-08-06T05:55:00;24.00;98.80
26408;DHT22;14583;43.604;1.364;2022-08-06T05:57:49;23.80;99.70
26408;DHT22;14583;43.604;1.364;2022-08-06T06:00:16;23.90;99.30
26408;DHT22;14583;43.604;1.364;2022-08-06T06:02:45;24.10;98.60
26408;DHT22;14583;43.604;1.364;2022-08-06T06:05:12;24.10;98.30
26408;DHT22;14583;43.604;1.364;2022-08-06T06:07:38;24.20;98.40
26408;DHT22;14583;43.604;1.364;2022-08-06T06:10:05;24.30;97.90
26408;DHT22;14583;43.604;1.364;2022-08-06T06:12:33;24.30;98.10
26408;DHT22;14583;43.604;1.364;2022-08-06T06:15:00;24.20;98.60
26408;DHT22;14583;43.604;1.364;2022-08-06T06:20:17;24.10;99.30
26408;DHT22;14583;43.604;1.364;2022-08-06T06:25:29;24.30;98.60
26408;DHT22;14583;43.604;1.364;2022-08-06T06:28:00;24.30;98.90
26408;DHT22;14583;43.604;1.364;2022-08-06T06:30:46;24.10;99.00
26408;DHT22;14583;43.604;1.364;2022-08-06T06:33:29;24.20;99.00
26408;DHT22;14583;43.604;1.364;2022-08-06T06:36:03;24.30;99.00
26408;DHT22;14583;43.604;1.364;2022-08-06T06:38:55;24.30;98.50
26408;DHT22;14583;43.604;1.364;2022-08-06T06:41:41;24.30;98.50
26408;DHT22;14583;43.604;1.364;2022-08-06T06:44:17;24.60;97.90
26408;DHT22;14583;43.604;1.364;2022-08-06T06:47:10;24.60;97.60
26408;DHT22;14583;43.604;1.364;2022-08-06T06:49:53;24.60;97.20
26408;DHT22;14583;43.604;1.364;2022-08-06T06:52:26;24.60;97.80
26408;DHT22;14583;43.604;1.364;2022-08-06T06:55:08;24.60;97.90
26408;DHT22;14583;43.604;1.364;2022-08-06T06:57:38;24.60;97.90
26408;DHT22;14583;43.604;1.364;2022-08-06T07:00:06;24.60;97.90
26408;DHT22;14583;43.604;1.364;2022-08-06T07:02:35;24.70;97.60
26408;DHT22;14583;43.604;1.364;2022-08-06T07:05:04;24.70;97.70
26408;DHT22;14583;43.604;1.364;2022-08-06T07:07:38;24.70;97.80
26408;DHT22;14583;43.604;1.364;2022-08-06T07:10:07;24.40;98.30
26408;DHT22;14583;43.604;1.364;2022-08-06T07:12:33;24.50;97.90
26408;DHT22;14583;43.604;1.364;2022-08-06T07:15:03;24.60;98.00
26408;DHT22;14583;43.604;1.364;2022-08-06T07:17:31;24.60;97.70
26408;DHT22;14583;43.604;1.364;2022-08-06T07:20:00;24.60;98.00
26408;DHT22;14583;43.604;1.364;2022-08-06T07:22:27;24.90;97.10
26408;DHT22;14583;43.604;1.364;2022-08-06T07:24:58;24.90;96.40
26408;DHT22;14583;43.604;1.364;2022-08-06T07:27:28;25.00;96.70
26408;DHT22;14583;43.604;1.364;2022-08-06T07:29:55;24.90;96.90
26408;DHT22;14583;43.604;1.364;2022-08-06T07:32:23;24.90;96.80
26408;DHT22;14583;43.604;1.364;2022-08-06T07:34:50;24.90;96.80
26408;DHT22;14583;43.604;1.364;2022-08-06T07:37:17;25.00;96.60
26408;DHT22;14583;43.604;1.364;2022-08-06T07:39:44;25.10;96.40
26408;DHT22;14583;43.604;1.364;2022-08-06T07:42:13;25.20;96.30
26408;DHT22;14583;43.604;1.364;2022-08-06T07:44:43;25.30;95.80
26408;DHT22;14583;43.604;1.364;2022-08-06T07:47:13;25.30;95.50
26408;DHT22;14583;43.604;1.364;2022-08-06T07:49:42;25.20;95.90
26408;DHT22;14583;43.604;1.364;2022-08-06T07:52:12;25.20;95.50
26408;DHT22;14583;43.604;1.364;2022-08-06T07:54:40;25.30;95.20
26408;DHT22;14583;43.604;1.364;2022-08-06T07:57:07;25.30;95.30
26408;DHT22;14583;43.604;1.364;2022-08-06T07:59:33;25.40;95.20
26408;DHT22;14583;43.604;1.364;2022-08-06T08:02:02;25.30;95.10
26408;DHT22;14583;43.604;1.364;2022-08-06T08:04:29;25.40;94.80
26408;DHT22;14583;43.604;1.364;2022-08-06T08:07:15;25.40;94.90
26408;DHT22;14583;43.604;1.364;2022-08-06T08:09:43;25.50;94.50
26408;DHT22;14583;43.604;1.364;2022-08-06T08:12:14;25.60;94.40
26408;DHT22;14583;43.604;1.364;2022-08-06T08:14:43;25.60;94.70
26408;DHT22;14583;43.604;1.364;2022-08-06T08:17:09;25.50;94.90
26408;DHT22;14583;43.604;1.364;2022-08-06T08:19:35;25.50;94.50
26408;DHT22;14583;43.604;1.364;2022-08-06T08:22:08;25.50;95.00
26408;DHT22;14583;43.604;1.364;2022-08-06T08:24:35;25.60;94.70
26408;DHT22;14583;43.604;1.364;2022-08-06T08:27:01;25.50;95.20
26408;DHT22;14583;43.604;1.364;2022-08-06T08:29:29;25.50;95.20
26408;DHT22;14583;43.604;1.364;2022-08-06T08:31:55;25.50;95.10
26408;DHT22;14583;43.604;1.364;2022-08-06T08:34:22;25.60;94.70
26408;DHT22;14583;43.604;1.364;2022-08-06T08:36:48;25.60;94.50
26408;DHT22;14583;43.604;1.364;2022-08-06T08:39:13;25.70;94.50
26408;DHT22;14583;43.604;1.364;2022-08-06T08:41:51;25.90;93.90
26408;DHT22;14583;43.604;1.364;2022-08-06T08:44:23;25.90;93.40
26408;DHT22;14583;43.604;1.364;2022-08-06T08:46:50;26.00;93.10
26408;DHT22;14583;43.604;1.364;2022-08-06T08:49:40;25.90;93.80
26408;DHT22;14583;43.604;1.364;2022-08-06T08:52:14;26.00;93.70
26408;DHT22;14583;43.604;1.364;2022-08-06T08:54:45;26.00;93.70
26408;DHT22;14583;43.604;1.364;2022-08-06T08:57:13;26.00;93.80
26408;DHT22;14583;43.604;1.364;2022-08-06T08:59:40;26.00;94.30
26408;DHT22;14583;43.604;1.364;2022-08-06T09:02:07;26.10;93.60
26408;DHT22;14583;43.604;1.364;2022-08-06T09:04:35;26.10;93.80
26408;DHT22;14583;43.604;1.364;2022-08-06T09:07:17;26.10;93.60
26408;DHT22;14583;43.604;1.364;2022-08-06T09:09:43;26.20;93.70
26408;DHT22;14583;43.604;1.364;2022-08-06T09:12:09;26.20;93.40
26408;DHT22;14583;43.604;1.364;2022-08-06T09:14:36;26.30;93.00
26408;DHT22;14583;43.604;1.364;2022-08-06T09:17:04;26.30;93.30
26408;DHT22;14583;43.604;1.364;2022-08-06T09:19:30;26.30;93.20
26408;DHT22;14583;43.604;1.364;2022-08-06T09:21:59;26.40;93.20
26408;DHT22;14583;43.604;1.364;2022-08-06T09:24:26;26.40;93.20
26408;DHT22;14583;43.604;1.364;2022-08-06T09:27:14;26.50;92.90
26408;DHT22;14583;43.604;1.364;2022-08-06T09:30:00;26.60;93.30
26408;DHT22;14583;43.604;1.364;2022-08-06T09:32:43;26.60;92.90
26408;DHT22;14583;43.604;1.364;2022-08-06T09:37:50;26.70;92.70
26408;DHT22;14583;43.604;1.364;2022-08-06T09:40:24;26.80;93.30
26408;DHT22;14583;43.604;1.364;2022-08-06T09:42:50;26.70;92.60
26408;DHT22;14583;43.604;1.364;2022-08-06T09:45:20;26.80;92.10
26408;DHT22;14583;43.604;1.364;2022-08-06T09:47:47;27.00;92.70
26408;DHT22;14583;43.604;1.364;2022-08-06T09:50:13;27.00;92.30
26408;DHT22;14583;43.604;1.364;2022-08-06T09:52:39;27.00;92.70
26408;DHT22;14583;43.604;1.364;2022-08-06T09:55:06;27.10;92.50
26408;DHT22;14583;43.604;1.364;2022-08-06T09:57:44;27.00;92.60
26408;DHT22;14583;43.604;1.364;2022-08-06T10:00:11;27.00;92.10
26408;DHT22;14583;43.604;1.364;2022-08-06T10:02:37;27.00;92.50
26408;DHT22;14583;43.604;1.364;2022-08-06T10:05:08;27.00;92.50
26408;DHT22;14583;43.604;1.364;2022-08-06T10:07:34;27.10;92.20
26408;DHT22;14583;43.604;1.364;2022-08-06T10:10:00;27.20;92.50
26408;DHT22;14583;43.604;1.364;2022-08-06T10:12:25;27.20;92.10
26408;DHT22;14583;43.604;1.364;2022-08-06T10:14:51;27.30;91.80
26408;DHT22;14583;43.604;1.364;2022-08-06T10:17:19;27.40;91.90
26408;DHT22;14583;43.604;1.364;2022-08-06T10:20:05;27.40;91.60
26408;DHT22;14583;43.604;1.364;2022-08-06T10:22:31;27.50;91.70
26408;DHT22;14583;43.604;1.364;2022-08-06T10:25:00;27.50;91.80
26408;DHT22;14583;43.604;1.364;2022-08-06T10:27:30;27.70;92.30
26408;DHT22;14583;43.604;1.364;2022-08-06T10:30:03;27.90;91.60
26408;DHT22;14583;43.604;1.364;2022-08-06T10:32:43;27.90;91.10
26408;DHT22;14583;43.604;1.364;2022-08-06T10:35:11;27.90;91.60
26408;DHT22;14583;43.604;1.364;2022-08-06T10:37:41;28.00;90.70
26408;DHT22;14583;43.604;1.364;2022-08-06T10:40:10;28.00;90.40
26408;DHT22;14583;43.604;1.364;2022-08-06T10:42:40;28.00;90.20
26408;DHT22;14583;43.604;1.364;2022-08-06T10:45:10;28.00;91.00
26408;DHT22;14583;43.604;1.364;2022-08-06T10:47:38;28.10;90.20
26408;DHT22;14583;43.604;1.364;2022-08-06T10:50:04;28.20;89.50
26408;DHT22;14583;43.604;1.364;2022-08-06T10:52:31;28.30;91.00
26408;DHT22;14583;43.604;1.364;2022-08-06T10:54:58;28.30;89.60
26408;DHT22;14583;43.604;1.364;2022-08-06T10:57:26;28.40;89.00
26408;DHT22;14583;43.604;1.364;2022-08-06T10:59:52;28.40;89.30
26408;DHT22;14583;43.604;1.364;2022-08-06T11:05:35;28.40;88.70
26408;DHT22;14583;43.604;1.364;2022-08-06T11:08:29;28.40;89.20
26408;DHT22;14583;43.604;1.364;2022-08-06T11:13:39;28.50;88.80
26408;DHT22;14583;43.604;1.364;2022-08-06T11:16:22;28.50;87.80
26408;DHT22;14583;43.604;1.364;2022-08-06T11:19:03;28.50;90.30
26408;DHT22;14583;43.604;1.364;2022-08-06T11:21:46;28.50;89.00
26408;DHT22;14583;43.604;1.364;2022-08-06T11:24:12;28.90;89.20
26408;DHT22;14583;43.604;1.364;2022-08-06T11:26:43;29.00;87.80
26408;DHT22;14583;43.604;1.364;2022-08-06T11:29:11;29.10;89.50
26408;DHT22;14583;43.604;1.364;2022-08-06T11:31:48;29.10;88.50
26408;DHT22;14583;43.604;1.364;2022-08-06T11:34:16;29.20;86.10
26408;DHT22;14583;43.604;1.364;2022-08-06T11:36:44;29.30;85.00
26408;DHT22;14583;43.604;1.364;2022-08-06T11:39:11;29.30;85.40
26408;DHT22;14583;43.604;1.364;2022-08-06T11:41:51;29.60;83.90
26408;DHT22;14583;43.604;1.364;2022-08-06T11:44:19;29.70;84.30
26408;DHT22;14583;43.604;1.364;2022-08-06T11:46:46;29.60;84.40
26408;DHT22;14583;43.604;1.364;2022-08-06T11:49:20;29.60;83.00
26408;DHT22;14583;43.604;1.364;2022-08-06T11:51:50;29.60;82.90
26408;DHT22;14583;43.604;1.364;2022-08-06T11:54:20;29.50;83.90
26408;DHT22;14583;43.604;1.364;2022-08-06T11:59:28;29.60;82.00
26408;DHT22;14583;43.604;1.364;2022-08-06T12:01:55;29.60;81.90
26408;DHT22;14583;43.604;1.364;2022-08-06T12:07:21;29.90;81.10
26408;DHT22;14583;43.604;1.364;2022-08-06T12:10:12;29.90;83.00
26408;DHT22;14583;43.604;1.364;2022-08-06T12:12:47;29.90;80.80
26408;DHT22;14583;43.604;1.364;2022-08-06T12:18:04;29.70;81.10
26408;DHT22;14583;43.604;1.364;2022-08-06T12:23:05;29.80;79.70
26408;DHT22;14583;43.604;1.364;2022-08-06T12:25:39;29.90;80.30
26408;DHT22;14583;43.604;1.364;2022-08-06T12:28:07;29.80;78.90
26408;DHT22;14583;43.604;1.364;2022-08-06T12:30:52;29.90;78.30
26408;DHT22;14583;43.604;1.364;2022-08-06T12:33:19;29.90;78.60
26408;DHT22;14583;43.604;1.364;2022-08-06T12:36:02;29.80;78.00
26408;DHT22;14583;43.604;1.364;2022-08-06T12:38:30;29.90;78.50
26408;DHT22;14583;43.604;1.364;2022-08-06T12:40:57;29.90;78.30
26408;DHT22;14583;43.604;1.364;2022-08-06T12:43:24;29.90;78.80
26408;DHT22;14583;43.604;1.364;2022-08-06T12:46:03;30.00;77.60
26408;DHT22;14583;43.604;1.364;2022-08-06T12:48:31;30.00;77.70
26408;DHT22;14583;43.604;1.364;2022-08-06T12:51:08;30.00;78.90
26408;DHT22;14583;43.604;1.364;2022-08-06T12:56:05;30.10;78.30
26408;DHT22;14583;43.604;1.364;2022-08-06T12:58:36;30.10;76.80
26408;DHT22;14583;43.604;1.364;2022-08-06T13:01:03;30.10;76.30
26408;DHT22;14583;43.604;1.364;2022-08-06T13:03:32;30.00;77.20
26408;DHT22;14583;43.604;1.364;2022-08-06T13:06:01;30.10;76.00
26408;DHT22;14583;43.604;1.364;2022-08-06T13:08:28;30.20;76.30
26408;DHT22;14583;43.604;1.364;2022-08-06T13:10:55;30.30;75.40
26408;DHT22;14583;43.604;1.364;2022-08-06T13:13:33;30.50;76.10
26408;DHT22;14583;43.604;1.364;2022-08-06T13:16:10;30.60;75.60
26408;DHT22;14583;43.604;1.364;2022-08-06T13:18:37;30.50;75.50
26408;DHT22;14583;43.604;1.364;2022-08-06T13:21:04;30.60;75.00
26408;DHT22;14583;43.604;1.364;2022-08-06T13:23:45;30.70;75.20
26408;DHT22;14583;43.604;1.364;2022-08-06T13:26:19;30.90;73.90
26408;DHT22;14583;43.604;1.364;2022-08-06T13:31:37;30.80;74.60
26408;DHT22;14583;43.604;1.364;2022-08-06T13:34:07;30.90;74.20
26408;DHT22;14583;43.604;1.364;2022-08-06T13:36:36;30.90;74.60
26408;DHT22;14583;43.604;1.364;2022-08-06T13:39:47;31.00;74.70
26408;DHT22;14583;43.604;1.364;2022-08-06T13:42:13;30.90;74.50
26408;DHT22;14583;43.604;1.364;2022-08-06T13:44:44;30.90;74.30
26408;DHT22;14583;43.604;1.364;2022-08-06T13:47:12;31.00;73.90
26408;DHT22;14583;43.604;1.364;2022-08-06T13:49:39;31.20;74.20
26408;DHT22;14583;43.604;1.364;2022-08-06T13:52:06;31.30;73.00
26408;DHT22;14583;43.604;1.364;2022-08-06T13:54:34;31.40;73.50
26408;DHT22;14583;43.604;1.364;2022-08-06T13:57:01;31.50;71.70
26408;DHT22;14583;43.604;1.364;2022-08-06T13:59:29;31.60;71.30
26408;DHT22;14583;43.604;1.364;2022-08-06T14:01:58;31.70;70.70
26408;DHT22;14583;43.604;1.364;2022-08-06T14:04:24;31.80;70.30
26408;DHT22;14583;43.604;1.364;2022-08-06T14:06:51;31.70;70.70
26408;DHT22;14583;43.604;1.364;2022-08-06T14:09:19;31.70;70.50
26408;DHT22;14583;43.604;1.364;2022-08-06T14:11:46;31.80;70.20
26408;DHT22;14583;43.604;1.364;2022-08-06T14:14:26;31.60;69.90
26408;DHT22;14583;43.604;1.364;2022-08-06T14:16:57;31.60;69.90
26408;DHT22;14583;43.604;1.364;2022-08-06T14:19:23;31.60;69.40
26408;DHT22;14583;43.604;1.364;2022-08-06T14:21:49;31.70;70.20
26408;DHT22;14583;43.604;1.364;2022-08-06T14:24:15;31.90;69.30
26408;DHT22;14583;43.604;1.364;2022-08-06T14:26:40;32.10;69.00
26408;DHT22;14583;43.604;1.364;2022-08-06T14:29:06;32.30;68.40
26408;DHT22;14583;43.604;1.364;2022-08-06T14:31:32;32.50;68.20
26408;DHT22;14583;43.604;1.364;2022-08-06T14:33:58;32.70;67.00
26408;DHT22;14583;43.604;1.364;2022-08-06T14:36:26;32.70;67.50
26408;DHT22;14583;43.604;1.364;2022-08-06T14:38:52;32.70;66.80
26408;DHT22;14583;43.604;1.364;2022-08-06T14:41:18;32.70;66.90
26408;DHT22;14583;43.604;1.364;2022-08-06T14:44:02;32.60;66.60
26408;DHT22;14583;43.604;1.364;2022-08-06T14:46:46;32.80;66.90
26408;DHT22;14583;43.604;1.364;2022-08-06T14:49:12;32.90;67.50
26408;DHT22;14583;43.604;1.364;2022-08-06T14:51:38;33.00;66.80
26408;DHT22;14583;43.604;1.364;2022-08-06T14:54:06;33.00;66.40
26408;DHT22;14583;43.604;1.364;2022-08-06T14:56:34;33.00;66.10
26408;DHT22;14583;43.604;1.364;2022-08-06T14:59:00;33.10;65.50
26408;DHT22;14583;43.604;1.364;2022-08-06T15:01:26;33.30;66.50
26408;DHT22;14583;43.604;1.364;2022-08-06T15:03:51;33.40;65.20
26408;DHT22;14583;43.604;1.364;2022-08-06T15:06:17;33.50;65.50
26408;DHT22;14583;43.604;1.364;2022-08-06T15:08:43;33.50;65.00
26408;DHT22;14583;43.604;1.364;2022-08-06T15:11:08;33.60;65.30
26408;DHT22;14583;43.604;1.364;2022-08-06T15:13:34;33.80;65.00
26408;DHT22;14583;43.604;1.364;2022-08-06T15:16:00;33.80;64.50
26408;DHT22;14583;43.604;1.364;2022-08-06T15:18:25;33.80;65.40
26408;DHT22;14583;43.604;1.364;2022-08-06T15:20:51;33.90;64.50
26408;DHT22;14583;43.604;1.364;2022-08-06T15:23:17;33.90;65.00
26408;DHT22;14583;43.604;1.364;2022-08-06T15:25:43;34.10;63.70
26408;DHT22;14583;43.604;1.364;2022-08-06T15:28:09;34.20;63.50
26408;DHT22;14583;43.604;1.364;2022-08-06T15:30:35;34.30;63.90
26408;DHT22;14583;43.604;1.364;2022-08-06T15:33:00;34.50;63.00
26408;DHT22;14583;43.604;1.364;2022-08-06T15:35:26;34.70;63.70
26408;DHT22;14583;43.604;1.364;2022-08-06T15:37:53;34.80;62.90
26408;DHT22;14583;43.604;1.364;2022-08-06T15:40:19;35.00;61.70
26408;DHT22;14583;43.604;1.364;2022-08-06T15:42:45;35.10;61.50
26408;DHT22;14583;43.604;1.364;2022-08-06T15:45:11;35.20;61.20
26408;DHT22;14583;43.604;1.364;2022-08-06T15:47:39;35.30;60.80
26408;DHT22;14583;43.604;1.364;2022-08-06T15:50:05;35.50;60.60
26408;DHT22;14583;43.604;1.364;2022-08-06T15:52:31;35.60;60.20
26408;DHT22;14583;43.604;1.364;2022-08-06T15:54:57;36.20;60.50
26408;DHT22;14583;43.604;1.364;2022-08-06T15:57:23;36.50;58.90
26408;DHT22;14583;43.604;1.364;2022-08-06T15:59:49;36.80;58.60
26408;DHT22;14583;43.604;1.364;2022-08-06T16:02:15;37.40;58.90
26408;DHT22;14583;43.604;1.364;2022-08-06T16:04:40;38.20;57.90
26408;DHT22;14583;43.604;1.364;2022-08-06T16:07:06;39.70;56.90
26408;DHT22;14583;43.604;1.364;2022-08-06T16:09:35;44.20;52.90
26408;DHT22;14583;43.604;1.364;2022-08-06T16:12:01;47.00;49.00
26408;DHT22;14583;43.604;1.364;2022-08-06T16:14:29;48.60;46.40
26408;DHT22;14583;43.604;1.364;2022-08-06T16:16:54;49.50;45.80
26408;DHT22;14583;43.604;1.364;2022-08-06T16:19:20;50.30;43.80
26408;DHT22;14583;43.604;1.364;2022-08-06T16:21:46;50.30;43.30
26408;DHT22;14583;43.604;1.364;2022-08-06T16:24:11;50.70;43.00